sensor_id;sensor_type;location;lat;lon;timestamp;temperature;humidity
3866;DHT22;1948;53.250;10.412;2022-09-09T00:12:39;15.00;99.90
3866;DHT22;1948;53.250;10.412;2022-09-09T00:15:14;15.00;99.90
3866;DHT22;1948;53.250;10.412;2022-09-09T00:23:35;15.00;99.90
3866;DHT22;1948;53.250;10.412;2022-09-09T00:32:01;15.00;99.90
3866;DHT22;1948;53.250;10.412;2022-09-09T00:34:38;14.90;99.90
3866;DHT22;1948;53.250;10.412;2022-09-09T00:37:12;14.90;99.90
3866;DHT22;1948;53.250;10.412;2022-09-09T00:39:45;14.90;99.90
3866;DHT22;1948;53.250;10.412;2022-09-09T00:42:26;14.90;99.90
3866;DHT22;1948;53.250;10.412;2022-09-09T00:45:45;14.90;99.90
3866;DHT22;1948;53.250;10.412;2022-09-09T00:48:13;14.80;99.90
3866;DHT22;1948;53.250;10.412;2022-09-09T01:00:20;14.90;99.90
3866;DHT22;1948;53.250;10.412;2022-09-09T01:03:02;14.90;99.90
3866;DHT22;1948;53.250;10.412;2022-09-09T01:11:27;15.00;99.90
3866;DHT22;1948;53.250;10.412;2022-09-09T01:17:16;15.10;99.90
3866;DHT22;1948;53.250;10.412;2022-09-09T01:25:56;15.00;99.90
3866;DHT22;1948;53.250;10.412;2022-09-09T01:28:36;14.90;99.90
3866;DHT22;1948;53.250;10.412;2022-09-09T01:31:05;14.80;99.90
3866;DHT22;1948;53.250;10.412;2022-09-09T01:33:36;14.80;99.90
3866;DHT22;1948;53.250;10.412;2022-09-09T01:36:10;14.80;99.90
3866;DHT22;1948;53.250;10.412;2022-09-09T01:38:40;14.70;99.90
3866;DHT22;1948;53.250;10.412;2022-09-09T01:41:14;14.70;99.90
3866;DHT22;1948;53.250;10.412;2022-09-09T01:43:44;14.70;99.90
3866;DHT22;1948;53.250;10.412;2022-09-09T01:46:12;14.60;99.90
3866;DHT22;1948;53.250;10.412;2022-09-09T01:48:42;14.60;99.90
3866;DHT22;1948;53.250;10.412;2022-09-09T01:51:10;14.60;99.90
3866;DHT22;1948;53.250;10.412;2022-09-09T01:53:39;14.60;99.90
3866;DHT22;1948;53.250;10.412;2022-09-09T01:59:01;14.60;99.90
3866;DHT22;1948;53.250;10.412;2022-09-09T02:05:32;14.50;99.90
3866;DHT22;1948;53.250;10.412;2022-09-09T02:13:21;14.30;99.90
3866;DHT22;1948;53.250;10.412;2022-09-09T02:16:03;14.30;99.90
3866;DHT22;1948;53.250;10.412;2022-09-09T02:21:40;14.30;99.90
3866;DHT22;1948;53.250;10.412;2022-09-09T02:24:11;14.30;99.90
3866;DHT22;1948;53.250;10.412;2022-09-09T02:26:42;14.30;99.90
3866;DHT22;1948;53.250;10.412;2022-09-09T02:29:25;14.30;99.90
3866;DHT22;1948;53.250;10.412;2022-09-09T02:31:59;14.20;99.90
3866;DHT22;1948;53.250;10.412;2022-09-09T02:34:36;14.30;99.90
3866;DHT22;1948;53.250;10.412;2022-09-09T02:37:09;14.30;99.90
3866;DHT22;1948;53.250;10.412;2022-09-09T02:39:37;14.30;99.90
3866;DHT22;1948;53.250;10.412;2022-09-09T02:42:05;14.20;99.90
3866;DHT22;1948;53.250;10.412;2022-09-09T02:44:34;14.20;99.90
3866;DHT22;1948;53.250;10.412;2022-09-09T02:56:14;14.10;99.90
3866;DHT22;1948;53.250;10.412;2022-09-09T02:58:45;14.10;99.90
3866;DHT22;1948;53.250;10.412;2022-09-09T03:01:15;14.10;99.90
3866;DHT22;1948;53.250;10.412;2022-09-09T03:03:43;14.10;99.90
3866;DHT22;1948;53.250;10.412;2022-09-09T03:06:10;14.10;99.90
3866;DHT22;1948;53.250;10.412;2022-09-09T03:08:40;14.10;99.90
3866;DHT22;1948;53.250;10.412;2022-09-09T03:11:16;14.10;99.90
3866;DHT22;1948;53.250;10.412;2022-09-09T03:13:48;14.10;99.90
3866;DHT22;1948;53.250;10.412;2022-09-09T03:16:15;14.10;99.90
3866;DHT22;1948;53.250;10.412;2022-09-09T03:18:42;14.00;99.90
3866;DHT22;1948;53.250;10.412;2022-09-09T03:21:12;14.10;99.90
3866;DHT22;1948;53.250;10.412;2022-09-09T03:23:46;14.00;99.90
3866;DHT22;1948;53.250;10.412;2022-09-09T03:26:13;14.10;99.90
3866;DHT22;1948;53.250;10.412;2022-09-09T03:28:42;14.10;99.90
3866;DHT22;1948;53.250;10.412;2022-09-09T03:31:09;14.10;99.90
3866;DHT22;1948;53.250;10.412;2022-09-09T03:33:37;14.10;99.90
3866;DHT22;1948;53.250;10.412;2022-09-09T03:36:07;14.10;99.90
3866;DHT22;1948;53.250;10.412;2022-09-09T03:38:37;14.00;99.90
3866;DHT22;1948;53.250;10.412;2022-09-09T03:41:04;14.10;99.90
3866;DHT22;1948;53.250;10.412;2022-09-09T03:43:36;14.00;99.90
3866;DHT22;1948;53.250;10.412;2022-09-09T03:46:04;14.00;99.90
3866;DHT22;1948;53.250;10.412;2022-09-09T03:48:31;14.10;99.90
3866;DHT22;1948;53.250;10.412;2022-09-09T03:51:01;14.10;99.90
3866;DHT22;1948;53.250;10.412;2022-09-09T03:53:31;14.10;99.90
3866;DHT22;1948;53.250;10.412;2022-09-09T03:55:58;14.00;99.90
3866;DHT22;1948;53.250;10.412;2022-09-09T03:58:27;14.00;99.90
3866;DHT22;1948;53.250;10.412;2022-09-09T04:00:59;13.90;99.90
3866;DHT22;1948;53.250;10.412;2022-09-09T04:03:30;13.90;99.90
3866;DHT22;1948;53.250;10.412;2022-09-09T04:05:59;14.00;99.90
3866;DHT22;1948;53.250;10.412;2022-09-09T04:08:29;14.00;99.90
3866;DHT22;1948;53.250;10.412;2022-09-09T04:10:58;13.90;99.90
3866;DHT22;1948;53.250;10.412;2022-09-09T04:13:36;14.00;99.90
3866;DHT22;1948;53.250;10.412;2022-09-09T04:16:09;13.90;99.90
3866;DHT22;1948;53.250;10.412;2022-09-09T04:18:37;14.00;99.90
3866;DHT22;1948;53.250;10.412;2022-09-09T04:21:04;14.00;99.90
3866;DHT22;1948;53.250;10.412;2022-09-09T04:23:33;14.00;99.90
3866;DHT22;1948;53.250;10.412;2022-09-09T04:26:02;14.10;99.90
3866;DHT22;1948;53.250;10.412;2022-09-09T04:28:36;14.10;99.90
3866;DHT22;1948;53.250;10.412;2022-09-09T04:31:20;14.10;99.90
3866;DHT22;1948;53.250;10.412;2022-09-09T04:33:50;14.10;99.90
3866;DHT22;1948;53.250;10.412;2022-09-09T04:36:18;14.20;99.90
3866;DHT22;1948;53.250;10.412;2022-09-09T04:38:46;14.20;99.90
3866;DHT22;1948;53.250;10.412;2022-09-09T04:41:15;14.30;99.90
3866;DHT22;1948;53.250;10.412;2022-09-09T04:43:44;14.30;99.90
3866;DHT22;1948;53.250;10.412;2022-09-09T04:46:11;14.30;99.90
3866;DHT22;1948;53.250;10.412;2022-09-09T04:48:38;14.40;99.90
3866;DHT22;1948;53.250;10.412;2022-09-09T04:51:11;14.50;99.90
3866;DHT22;1948;53.250;10.412;2022-09-09T04:53:42;14.60;99.90
3866;DHT22;1948;53.250;10.412;2022-09-09T04:56:11;14.50;99.90
3866;DHT22;1948;53.250;10.412;2022-09-09T04:58:42;14.50;99.90
3866;DHT22;1948;53.250;10.412;2022-09-09T05:01:13;14.60;99.90
3866;DHT22;1948;53.250;10.412;2022-09-09T05:03:45;14.70;99.90
3866;DHT22;1948;53.250;10.412;2022-09-09T05:06:15;14.70;99.90
3866;DHT22;1948;53.250;10.412;2022-09-09T05:08:46;14.70;99.90
3866;DHT22;1948;53.250;10.412;2022-09-09T05:13:54;14.60;99.90
3866;DHT22;1948;53.250;10.412;2022-09-09T05:16:26;14.60;99.90
3866;DHT22;1948;53.250;10.412;2022-09-09T05:18:53;14.60;99.90
3866;DHT22;1948;53.250;10.412;2022-09-09T05:21:22;14.50;99.90
3866;DHT22;1948;53.250;10.412;2022-09-09T05:23:52;14.40;99.90
3866;DHT22;1948;53.250;10.412;2022-09-09T05:26:21;14.40;99.90
3866;DHT22;1948;53.250;10.412;2022-09-09T05:28:48;14.40;99.90
3866;DHT22;1948;53.250;10.412;2022-09-09T05:31:19;14.40;99.90
3866;DHT22;1948;53.250;10.412;2022-09-09T05:33:56;14.40;99.90
3866;DHT22;1948;53.250;10.412;2022-09-09T05:36:23;14.50;99.90
3866;DHT22;1948;53.250;10.412;2022-09-09T05:38:50;14.40;99.90
3866;DHT22;1948;53.250;10.412;2022-09-09T05:41:17;14.60;99.90
3866;DHT22;1948;53.250;10.412;2022-09-09T05:43:45;14.70;99.90
3866;DHT22;1948;53.250;10.412;2022-09-09T05:46:19;14.90;99.90
3866;DHT22;1948;53.250;10.412;2022-09-09T05:48:48;15.00;99.90
3866;DHT22;1948;53.250;10.412;2022-09-09T05:51:24;15.00;99.90
3866;DHT22;1948;53.250;10.412;2022-09-09T05:53:54;15.00;99.90
3866;DHT22;1948;53.250;10.412;2022-09-09T05:56:29;15.00;99.90
3866;DHT22;1948;53.250;10.412;2022-09-09T05:59:01;15.00;99.90
3866;DHT22;1948;53.250;10.412;2022-09-09T06:01:31;15.00;99.90
3866;DHT22;1948;53.250;10.412;2022-09-09T06:03:59;15.10;99.90
3866;DHT22;1948;53.250;10.412;2022-09-09T06:06:31;15.10;99.90
3866;DHT22;1948;53.250;10.412;2022-09-09T06:09:05;15.00;99.90
3866;DHT22;1948;53.250;10.412;2022-09-09T06:11:41;15.00;99.90
3866;DHT22;1948;53.250;10.412;2022-09-09T06:14:08;15.10;99.90
3866;DHT22;1948;53.250;10.412;2022-09-09T06:16:36;15.00;99.90
3866;DHT22;1948;53.250;10.412;2022-09-09T06:19:04;15.10;99.90
3866;DHT22;1948;53.250;10.412;2022-09-09T06:21:36;15.10;99.90
3866;DHT22;1948;53.250;10.412;2022-09-09T06:24:08;15.10;99.90
3866;DHT22;1948;53.250;10.412;2022-09-09T06:26:39;15.20;99.90
3866;DHT22;1948;53.250;10.412;2022-09-09T06:29:08;15.20;99.90
3866;DHT22;1948;53.250;10.412;2022-09-09T06:31:36;15.30;99.90
3866;DHT22;1948;53.250;10.412;2022-09-09T06:34:07;15.30;99.90
3866;DHT22;1948;53.250;10.412;2022-09-09T06:36:37;15.40;99.90
3866;DHT22;1948;53.250;10.412;2022-09-09T06:39:06;15.60;99.90
3866;DHT22;1948;53.250;10.412;2022-09-09T06:41:42;15.50;99.90
3866;DHT22;1948;53.250;10.412;2022-09-09T06:44:12;15.60;99.90
3866;DHT22;1948;53.250;10.412;2022-09-09T06:46:39;15.60;99.90
3866;DHT22;1948;53.250;10.412;2022-09-09T06:49:09;15.60;99.90
3866;DHT22;1948;53.250;10.412;2022-09-09T06:51:39;15.70;99.90
3866;DHT22;1948;53.250;10.412;2022-09-09T06:54:11;15.80;99.90
3866;DHT22;1948;53.250;10.412;2022-09-09T06:56:42;16.00;99.90
3866;DHT22;1948;53.250;10.412;2022-09-09T06:59:12;16.00;99.90
3866;DHT22;1948;53.250;10.412;2022-09-09T07:01:42;16.20;99.90
3866;DHT22;1948;53.250;10.412;2022-09-09T07:04:21;16.30;99.90
3866;DHT22;1948;53.250;10.412;2022-09-09T07:06:48;16.40;99.90
3866;DHT22;1948;53.250;10.412;2022-09-09T07:09:15;16.50;99.90
3866;DHT22;1948;53.250;10.412;2022-09-09T07:11:45;16.70;99.90
3866;DHT22;1948;53.250;10.412;2022-09-09T07:14:19;16.70;99.90
3866;DHT22;1948;53.250;10.412;2022-09-09T07:16:47;17.00;99.90
3866;DHT22;1948;53.250;10.412;2022-09-09T07:19:17;17.10;99.90
3866;DHT22;1948;53.250;10.412;2022-09-09T07:21:44;17.40;99.90
3866;DHT22;1948;53.250;10.412;2022-09-09T07:24:13;17.40;99.90
3866;DHT22;1948;53.250;10.412;2022-09-09T07:26:46;17.30;99.90
3866;DHT22;1948;53.250;10.412;2022-09-09T07:29:13;17.60;99.90
3866;DHT22;1948;53.250;10.412;2022-09-09T07:31:46;18.00;99.90
3866;DHT22;1948;53.250;10.412;2022-09-09T07:34:13;18.40;99.90
3866;DHT22;1948;53.250;10.412;2022-09-09T07:36:40;18.40;99.90
3866;DHT22;1948;53.250;10.412;2022-09-09T07:39:12;18.40;99.90
3866;DHT22;1948;53.250;10.412;2022-09-09T07:41:42;18.40;99.90
3866;DHT22;1948;53.250;10.412;2022-09-09T07:44:18;18.50;99.90
3866;DHT22;1948;53.250;10.412;2022-09-09T07:46:48;18.60;99.90
3866;DHT22;1948;53.250;10.412;2022-09-09T07:49:18;18.80;99.90
3866;DHT22;1948;53.250;10.412;2022-09-09T07:51:53;19.00;99.90
3866;DHT22;1948;53.250;10.412;2022-09-09T07:54:21;19.40;99.90
3866;DHT22;1948;53.250;10.412;2022-09-09T07:56:50;19.60;99.90
3866;DHT22;1948;53.250;10.412;2022-09-09T07:59:18;19.70;99.90
3866;DHT22;1948;53.250;10.412;2022-09-09T08:01:49;19.80;99.90
3866;DHT22;1948;53.250;10.412;2022-09-09T08:04:22;19.70;99.90
3866;DHT22;1948;53.250;10.412;2022-09-09T08:06:59;19.70;99.90
3866;DHT22;1948;53.250;10.412;2022-09-09T08:09:32;19.80;99.90
3866;DHT22;1948;53.250;10.412;2022-09-09T08:12:03;19.80;99.90
3866;DHT22;1948;53.250;10.412;2022-09-09T08:14:35;19.80;99.90
3866;DHT22;1948;53.250;10.412;2022-09-09T08:17:02;19.80;99.90
3866;DHT22;1948;53.250;10.412;2022-09-09T08:19:34;19.60;99.90
3866;DHT22;1948;53.250;10.412;2022-09-09T08:22:03;19.60;99.90
3866;DHT22;1948;53.250;10.412;2022-09-09T08:24:36;19.70;99.90
3866;DHT22;1948;53.250;10.412;2022-09-09T08:27:03;19.80;99.90
3866;DHT22;1948;53.250;10.412;2022-09-09T08:29:33;20.10;99.90
3866;DHT22;1948;53.250;10.412;2022-09-09T08:32:04;20.60;99.90
3866;DHT22;1948;53.250;10.412;2022-09-09T08:34:31;20.60;99.90
3866;DHT22;1948;53.250;10.412;2022-09-09T08:37:00;20.40;99.90
3866;DHT22;1948;53.250;10.412;2022-09-09T08:39:32;20.50;99.90
3866;DHT22;1948;53.250;10.412;2022-09-09T08:47:54;20.80;99.90
3866;DHT22;1948;53.250;10.412;2022-09-09T08:50:39;21.20;99.90
3866;DHT22;1948;53.250;10.412;2022-09-09T08:53:22;21.50;99.90
3866;DHT22;1948;53.250;10.412;2022-09-09T08:55:57;21.90;99.90
3866;DHT22;1948;53.250;10.412;2022-09-09T08:58:31;21.80;99.90
3866;DHT22;1948;53.250;10.412;2022-09-09T09:12:00;24.90;99.90
3866;DHT22;1948;53.250;10.412;2022-09-09T09:14:35;26.90;99.90
3866;DHT22;1948;53.250;10.412;2022-09-09T09:17:06;27.70;99.90
3866;DHT22;1948;53.250;10.412;2022-09-09T09:19:40;27.60;99.90
3866;DHT22;1948;53.250;10.412;2022-09-09T09:22:38;27.60;99.90
3866;DHT22;1948;53.250;10.412;2022-09-09T09:25:16;27.00;99.90
3866;DHT22;1948;53.250;10.412;2022-09-09T09:31:11;25.60;99.90
3866;DHT22;1948;53.250;10.412;2022-09-09T09:33:51;24.50;99.90
3866;DHT22;1948;53.250;10.412;2022-09-09T09:36:34;24.00;99.90
3866;DHT22;1948;53.250;10.412;2022-09-09T09:39:06;23.80;99.90
3866;DHT22;1948;53.250;10.412;2022-09-09T09:41:56;23.20;99.90
3866;DHT22;1948;53.250;10.412;2022-09-09T09:44:31;23.00;99.90
3866;DHT22;1948;53.250;10.412;2022-09-09T09:47:20;22.60;99.90
3866;DHT22;1948;53.250;10.412;2022-09-09T09:49:55;22.30;99.90
3866;DHT22;1948;53.250;10.412;2022-09-09T09:52:26;22.40;99.90
3866;DHT22;1948;53.250;10.412;2022-09-09T09:54:57;22.90;99.90
3866;DHT22;1948;53.250;10.412;2022-09-09T09:57:35;23.20;99.90
3866;DHT22;1948;53.250;10.412;2022-09-09T10:00:13;23.70;99.90
3866;DHT22;1948;53.250;10.412;2022-09-09T10:02:42;23.90;99.90
3866;DHT22;1948;53.250;10.412;2022-09-09T10:05:20;24.20;99.90
3866;DHT22;1948;53.250;10.412;2022-09-09T10:08:11;24.50;99.90
3866;DHT22;1948;53.250;10.412;2022-09-09T10:13:18;25.20;99.90
3866;DHT22;1948;53.250;10.412;2022-09-09T10:16:22;24.90;99.90
3866;DHT22;1948;53.250;10.412;2022-09-09T10:19:15;24.20;99.90
3866;DHT22;1948;53.250;10.412;2022-09-09T10:24:38;23.90;99.90
3866;DHT22;1948;53.250;10.412;2022-09-09T10:35:43;27.00;99.90
3866;DHT22;1948;53.250;10.412;2022-09-09T10:38:26;28.30;99.90
3866;DHT22;1948;53.250;10.412;2022-09-09T10:52:52;31.40;99.90
3866;DHT22;1948;53.250;10.412;2022-09-09T10:55:27;30.70;99.90
3866;DHT22;1948;53.250;10.412;2022-09-09T10:58:05;30.80;99.90
3866;DHT22;1948;53.250;10.412;2022-09-09T11:00:42;32.40;99.90
3866;DHT22;1948;53.250;10.412;2022-09-09T11:03:20;32.90;99.90
3866;DHT22;1948;53.250;10.412;2022-09-09T11:05:53;32.80;99.90
3866;DHT22;1948;53.250;10.412;2022-09-09T11:08:26;33.00;99.90
3866;DHT22;1948;53.250;10.412;2022-09-09T11:11:20;32.90;99.90
3866;DHT22;1948;53.250;10.412;2022-09-09T11:14:15;31.10;99.90
3866;DHT22;1948;53.250;10.412;2022-09-09T11:22:30;27.10;99.90
3866;DHT22;1948;53.250;10.412;2022-09-09T11:34:36;24.90;99.90
3866;DHT22;1948;53.250;10.412;2022-09-09T11:40:17;24.40;99.90
3866;DHT22;1948;53.250;10.412;2022-09-09T11:42:47;24.20;99.90
3866;DHT22;1948;53.250;10.412;2022-09-09T11:45:21;23.90;99.90
3866;DHT22;1948;53.250;10.412;2022-09-09T11:47:55;23.60;99.90
3866;DHT22;1948;53.250;10.412;2022-09-09T11:53:16;23.10;99.90
3866;DHT22;1948;53.250;10.412;2022-09-09T11:55:47;22.30;99.90
3866;DHT22;1948;53.250;10.412;2022-09-09T11:58:26;21.10;99.90
3866;DHT22;1948;53.250;10.412;2022-09-09T12:00:58;20.60;99.90
3866;DHT22;1948;53.250;10.412;2022-09-09T12:06:17;20.50;99.90
3866;DHT22;1948;53.250;10.412;2022-09-09T12:08:54;20.70;99.90
3866;DHT22;1948;53.250;10.412;2022-09-09T12:11:25;20.90;99.90
3866;DHT22;1948;53.250;10.412;2022-09-09T12:13:59;21.10;99.90
3866;DHT22;1948;53.250;10.412;2022-09-09T12:16:38;21.30;99.90
3866;DHT22;1948;53.250;10.412;2022-09-09T12:19:15;21.50;99.90
3866;DHT22;1948;53.250;10.412;2022-09-09T12:22:24;21.90;99.90
3866;DHT22;1948;53.250;10.412;2022-09-09T12:31:32;22.60;99.90
3866;DHT22;1948;53.250;10.412;2022-09-09T12:34:18;22.90;99.90
3866;DHT22;1948;53.250;10.412;2022-09-09T12:36:52;23.10;99.90
3866;DHT22;1948;53.250;10.412;2022-09-09T12:39:38;23.20;99.90
3866;DHT22;1948;53.250;10.412;2022-09-09T12:42:20;23.50;99.90
3866;DHT22;1948;53.250;10.412;2022-09-09T12:45:20;23.70;99.90
3866;DHT22;1948;53.250;10.412;2022-09-09T12:47:58;23.90;99.90
3866;DHT22;1948;53.250;10.412;2022-09-09T12:50:36;24.20;99.90
3866;DHT22;1948;53.250;10.412;2022-09-09T12:53:29;24.30;99.90
3866;DHT22;1948;53.250;10.412;2022-09-09T12:56:06;24.70;99.90
3866;DHT22;1948;53.250;10.412;2022-09-09T12:58:38;26.30;99.90
3866;DHT22;1948;53.250;10.412;2022-09-09T13:01:17;29.10;99.90
3866;DHT22;1948;53.250;10.412;2022-09-09T13:03:47;31.80;99.90
3866;DHT22;1948;53.250;10.412;2022-09-09T13:06:34;33.40;99.90
3866;DHT22;1948;53.250;10.412;2022-09-09T13:09:02;34.70;99.90
3866;DHT22;1948;53.250;10.412;2022-09-09T13:11:42;35.80;99.90
3866;DHT22;1948;53.250;10.412;2022-09-09T13:14:19;37.10;99.90
3866;DHT22;1948;53.250;10.412;2022-09-09T13:17:00;37.20;99.90
3866;DHT22;1948;53.250;10.412;2022-09-09T13:19:32;37.00;99.90
3866;DHT22;1948;53.250;10.412;2022-09-09T13:22:36;36.00;99.90
3866;DHT22;1948;53.250;10.412;2022-09-09T13:27:41;31.10;99.90
3866;DHT22;1948;53.250;10.412;2022-09-09T13:35:33;26.70;99.90
3866;DHT22;1948;53.250;10.412;2022-09-09T13:38:09;25.80;99.90
3866;DHT22;1948;53.250;10.412;2022-09-09T13:40:37;24.70;99.90
3866;DHT22;1948;53.250;10.412;2022-09-09T13:43:10;24.10;99.90
3866;DHT22;1948;53.250;10.412;2022-09-09T13:45:56;23.60;99.90
3866;DHT22;1948;53.250;10.412;2022-09-09T13:48:28;23.00;99.90
3866;DHT22;1948;53.250;10.412;2022-09-09T13:51:32;22.60;99.90
3866;DHT22;1948;53.250;10.412;2022-09-09T13:54:10;22.30;99.90
3866;DHT22;1948;53.250;10.412;2022-09-09T13:56:38;21.90;99.90
3866;DHT22;1948;53.250;10.412;2022-09-09T13:59:12;21.80;99.90
3866;DHT22;1948;53.250;10.412;2022-09-09T14:01:43;21.60;99.90
3866;DHT22;1948;53.250;10.412;2022-09-09T14:04:11;21.40;99.90
3866;DHT22;1948;53.250;10.412;2022-09-09T14:06:39;21.30;99.90
3866;DHT22;1948;53.250;10.412;2022-09-09T14:09:07;21.00;99.90
3866;DHT22;1948;53.250;10.412;2022-09-09T14:11:40;20.80;99.90
3866;DHT22;1948;53.250;10.412;2022-09-09T14:14:07;20.80;99.90
3866;DHT22;1948;53.250;10.412;2022-09-09T14:16:34;20.80;99.90
3866;DHT22;1948;53.250;10.412;2022-09-09T14:19:01;20.80;99.90
3866;DHT22;1948;53.250;10.412;2022-09-09T14:21:30;20.80;99.90
3866;DHT22;1948;53.250;10.412;2022-09-09T14:23:58;20.80;99.90
3866;DHT22;1948;53.250;10.412;2022-09-09T14:26:25;20.80;99.90
3866;DHT22;1948;53.250;10.412;2022-09-09T14:28:56;20.80;99.90
3866;DHT22;1948;53.250;10.412;2022-09-09T14:31:26;20.80;99.90
3866;DHT22;1948;53.250;10.412;2022-09-09T14:33:53;20.90;99.90
3866;DHT22;1948;53.250;10.412;2022-09-09T14:36:20;20.90;99.90
3866;DHT22;1948;53.250;10.412;2022-09-09T14:38:47;20.90;99.90
3866;DHT22;1948;53.250;10.412;2022-09-09T14:41:19;20.80;99.90
3866;DHT22;1948;53.250;10.412;2022-09-09T14:43:46;20.70;99.90
3866;DHT22;1948;53.250;10.412;2022-09-09T14:46:18;20.70;99.90
3866;DHT22;1948;53.250;10.412;2022-09-09T14:48:45;20.80;99.90
3866;DHT22;1948;53.250;10.412;2022-09-09T14:51:23;20.70;99.90
3866;DHT22;1948;53.250;10.412;2022-09-09T14:53:52;20.80;99.90
3866;DHT22;1948;53.250;10.412;2022-09-09T14:56:22;20.70;99.90
3866;DHT22;1948;53.250;10.412;2022-09-09T14:58:53;20.70;99.90
3866;DHT22;1948;53.250;10.412;2022-09-09T15:01:22;20.70;99.90
3866;DHT22;1948;53.250;10.412;2022-09-09T15:04:01;20.70;99.90
3866;DHT22;1948;53.250;10.412;2022-09-09T15:06:34;20.70;99.90
3866;DHT22;1948;53.250;10.412;2022-09-09T15:09:03;20.70;99.90
3866;DHT22;1948;53.250;10.412;2022-09-09T15:11:37;20.70;99.90
3866;DHT22;1948;53.250;10.412;2022-09-09T15:14:08;20.60;99.90
3866;DHT22;1948;53.250;10.412;2022-09-09T15:16:39;20.60;99.90
3866;DHT22;1948;53.250;10.412;2022-09-09T15:19:06;20.50;99.90
3866;DHT22;1948;53.250;10.412;2022-09-09T15:21:36;20.50;99.90
3866;DHT22;1948;53.250;10.412;2022-09-09T15:24:10;20.40;99.90
3866;DHT22;1948;53.250;10.412;2022-09-09T15:26:39;20.40;99.90
3866;DHT22;1948;53.250;10.412;2022-09-09T15:29:06;20.30;99.90
3866;DHT22;1948;53.250;10.412;2022-09-09T15:31:35;20.40;99.90
3866;DHT22;1948;53.250;10.412;2022-09-09T15:34:04;20.50;99.90
3866;DHT22;1948;53.250;10.412;2022-09-09T15:36:37;20.60;99.90
3866;DHT22;1948;53.250;10.412;2022-09-09T15:39:11;20.60;99.90
3866;DHT22;1948;53.250;10.412;2022-09-09T15:41:39;20.70;99.90
3866;DHT22;1948;53.250;10.412;2022-09-09T15:44:09;20.80;99.90
3866;DHT22;1948;53.250;10.412;2022-09-09T15:46:41;20.80;99.90
3866;DHT22;1948;53.250;10.412;2022-09-09T15:49:18;20.90;99.90
3866;DHT22;1948;53.250;10.412;2022-09-09T15:51:54;20.90;99.90
3866;DHT22;1948;53.250;10.412;2022-09-09T15:54:25;21.00;99.90
3866;DHT22;1948;53.250;10.412;2022-09-09T15:56:58;21.00;99.90
3866;DHT22;1948;53.250;10.412;2022-09-09T15:59:28;21.00;99.90
3866;DHT22;1948;53.250;10.412;2022-09-09T16:01:57;21.00;99.90
3866;DHT22;1948;53.250;10.412;2022-09-09T16:04:24;21.00;99.90
3866;DHT22;1948;53.250;10.412;2022-09-09T16:06:59;21.00;99.90
3866;DHT22;1948;53.250;10.412;2022-09-09T16:09:28;20.90;99.90
3866;DHT22;1948;53.250;10.412;2022-09-09T16:11:56;20.90;99.90
3866;DHT22;1948;53.250;10.412;2022-09-09T16:14:25;20.80;99.90
3866;DHT22;1948;53.250;10.412;2022-09-09T16:16:53;20.80;99.90
3866;DHT22;1948;53.250;10.412;2022-09-09T16:19:20;20.70;99.90
3866;DHT22;1948;53.250;10.412;2022-09-09T16:21:48;20.70;99.90
3866;DHT22;1948;53.250;10.412;2022-09-09T16:24:19;20.60;99.90
3866;DHT22;1948;53.250;10.412;2022-09-09T16:26:52;20.50;99.90
3866;DHT22;1948;53.250;10.412;2022-09-09T16:29:21;20.50;99.90
3866;DHT22;1948;53.250;10.412;2022-09-09T16:31:49;20.50;99.90
3866;DHT22;1948;53.250;10.412;2022-09-09T16:34:20;20.40;99.90
3866;DHT22;1948;53.250;10.412;2022-09-09T16:36:49;20.50;99.90
3866;DHT22;1948;53.250;10.412;2022-09-09T16:39:19;20.40;99.90
3866;DHT22;1948;53.250;10.412;2022-09-09T16:41:47;20.30;99.90
3866;DHT22;1948;53.250;10.412;2022-09-09T16:44:16;20.30;99.90
3866;DHT22;1948;53.250;10.412;2022-09-09T16:46:46;20.30;99.90
3866;DHT22;1948;53.250;10.412;2022-09-09T16:49:15;20.20;99.90
3866;DHT22;1948;53.250;10.412;2022-09-09T16:51:47;20.10;99.90
3866;DHT22;1948;53.250;10.412;2022-09-09T16:54:16;20.10;99.90
3866;DHT22;1948;53.250;10.412;2022-09-09T16:56:49;20.10;99.90
3866;DHT22;1948;53.250;10.412;2022-09-09T16:59:21;20.00;99.90
3866;DHT22;1948;53.250;10.412;2022-09-09T17:01:52;19.90;99.90
3866;DHT22;1948;53.250;10.412;2022-09-09T17:04:26;19.80;99.90
3866;DHT22;1948;53.250;10.412;2022-09-09T17:06:55;19.80;99.90
3866;DHT22;1948;53.250;10.412;2022-09-09T17:09:26;19.70;99.90
3866;DHT22;1948;53.250;10.412;2022-09-09T17:11:56;19.70;99.90
3866;DHT22;1948;53.250;10.412;2022-09-09T17:14:23;19.70;99.90
3866;DHT22;1948;53.250;10.412;2022-09-09T17:16:53;19.60;99.90
3866;DHT22;1948;53.250;10.412;2022-09-09T17:19:19;19.40;99.90
3866;DHT22;1948;53.250;10.412;2022-09-09T17:21:46;19.30;99.90
3866;DHT22;1948;53.250;10.412;2022-09-09T17:24:36;19.10;99.90
3866;DHT22;1948;53.250;10.412;2022-09-09T17:27:09;19.00;99.90
3866;DHT22;1948;53.250;10.412;2022-09-09T17:29:36;19.00;99.90
3866;DHT22;1948;53.250;10.412;2022-09-09T17:32:07;18.90;99.90
3866;DHT22;1948;53.250;10.412;2022-09-09T17:34:35;18.80;99.90
3866;DHT22;1948;53.250;10.412;2022-09-09T17:37:02;18.80;99.90
3866;DHT22;1948;53.250;10.412;2022-09-09T17:39:33;18.70;99.90
3866;DHT22;1948;53.250;10.412;2022-09-09T17:42:00;18.70;99.90
3866;DHT22;1948;53.250;10.412;2022-09-09T17:44:27;18.70;99.90
3866;DHT22;1948;53.250;10.412;2022-09-09T17:46:55;18.60;99.90
3866;DHT22;1948;53.250;10.412;2022-09-09T17:49:25;18.70;99.90
3866;DHT22;1948;53.250;10.412;2022-09-09T17:51:55;18.70;99.90
3866;DHT22;1948;53.250;10.412;2022-09-09T17:54:23;18.50;99.90
3866;DHT22;1948;53.250;10.412;2022-09-09T17:56:52;18.50;99.90
3866;DHT22;1948;53.250;10.412;2022-09-09T17:59:19;18.50;99.90
3866;DHT22;1948;53.250;10.412;2022-09-09T18:01:50;18.50;99.90
3866;DHT22;1948;53.250;10.412;2022-09-09T18:04:18;18.50;99.90
3866;DHT22;1948;53.250;10.412;2022-09-09T18:06:50;18.40;99.90
3866;DHT22;1948;53.250;10.412;2022-09-09T18:09:23;18.40;99.90
3866;DHT22;1948;53.250;10.412;2022-09-09T18:11:59;18.40;99.90
3866;DHT22;1948;53.250;10.412;2022-09-09T18:14:33;18.40;99.90
3866;DHT22;1948;53.250;10.412;2022-09-09T18:17:04;18.30;99.90
3866;DHT22;1948;53.250;10.412;2022-09-09T18:19:36;18.40;99.90
3866;DHT22;1948;53.250;10.412;2022-09-09T18:22:04;18.30;99.90
3866;DHT22;1948;53.250;10.412;2022-09-09T18:24:32;18.20;99.90
3866;DHT22;1948;53.250;10.412;2022-09-09T18:26:59;18.20;99.90
3866;DHT22;1948;53.250;10.412;2022-09-09T18:29:26;18.10;99.90
3866;DHT22;1948;53.250;10.412;2022-09-09T18:31:54;18.00;99.90
3866;DHT22;1948;53.250;10.412;2022-09-09T18:34:25;18.00;99.90
3866;DHT22;1948;53.250;10.412;2022-09-09T18:36:55;18.00;99.90
3866;DHT22;1948;53.250;10.412;2022-09-09T18:39:26;18.00;99.90
3866;DHT22;1948;53.250;10.412;2022-09-09T18:41:56;17.90;99.90
3866;DHT22;1948;53.250;10.412;2022-09-09T18:44:28;17.80;99.90
3866;DHT22;1948;53.250;10.412;2022-09-09T18:46:56;17.80;99.90
3866;DHT22;1948;53.250;10.412;2022-09-09T18:49:26;17.80;99.90
3866;DHT22;1948;53.250;10.412;2022-09-09T18:51:55;17.70;99.90
3866;DHT22;1948;53.250;10.412;2022-09-09T18:54:25;17.70;99.90
3866;DHT22;1948;53.250;10.412;2022-09-09T18:56:58;17.60;99.90